This is the latest recevied weather packets stored in our database for station/object DB0TGO-10. If no packets are shown the sender has not sent any weather packets the latest 10 day(s).
| Time | Temp. | Humidity | Pressure | Rain* | Wind** | Luminosity | Snow |
|---|---|---|---|---|---|---|---|
| 1778043346 | 10.56° C | 99% | 1005.5 hPa | 1.27 mm | - | - | - |
| 1778040234 | 10.56° C | 99% | 1005.9 hPa | 3.3 mm | - | - | - |
| 1778037085 | 10.56° C | 99% | 1006.3 hPa | 4.83 mm | - | - | - |
| 1778033700 | 10.56° C | 98% | 1006.8 hPa | 2.79 mm | - | - | - |
| 1778030279 | 11.11° C | 98% | 1007 hPa | 0.76 mm | - | - | - |
| 1778026935 | 11.11° C | 97% | 1007.7 hPa | 0.51 mm | - | - | - |
| 1778023700 | 11.67° C | 96% | 1008.1 hPa | 0 mm | - | - | - |
| 1778020735 | 12.22° C | 92% | 1008.3 hPa | 0 mm | - | - | - |
| 1778017775 | 12.78° C | 92% | 1008.5 hPa | 0 mm | - | - | - |
| 1778014672 | 13.33° C | 92% | 1008.7 hPa | 0 mm | - | - | - |
| 1778011368 | 13.89° C | 91% | 1008.7 hPa | 0 mm | - | - | - |
| 1778007928 | 15° C | 88% | 1008.3 hPa | 0 mm | - | - | - |
| 1778005102 | 16.11° C | 85% | 1008.2 hPa | 0 mm | - | - | - |
| 1778002268 | 17.22° C | 81% | 1008.1 hPa | 0 mm | - | - | - |
| 1777999280 | 19.44° C | 75% | 1008.4 hPa | 0 mm | - | - | - |
| 1777995922 | 19.44° C | 70% | 1008.7 hPa | 0 mm | - | - | - |
| 1777992400 | 20.56° C | 67% | 1008.8 hPa | 0 mm | - | - | - |
| 1777989348 | 21.11° C | 65% | 1008.9 hPa | 0 mm | - | - | - |
| 1777986460 | 21.11° C | 62% | 1009.1 hPa | 0 mm | - | - | - |
| 1777983070 | 19.44° C | 71% | 1009.7 hPa | 0 mm | - | - | - |
| 1777979899 | 20° C | 74% | 1009.8 hPa | 0 mm | - | - | - |
| 1777976630 | 18.33° C | 81% | 1010.1 hPa | 0 mm | - | - | - |
| 1777970200 | 16.11° C | 84% | 1010.2 hPa | 0 mm | - | - | - |
| 1777966780 | 16.11° C | 79% | 1010.4 hPa | 0 mm | - | - | - |
| 1777963586 | 15.56° C | 81% | 1010.2 hPa | 0 mm | - | - | - |
* Rain latest hour (hover to see other rain measurements)
** Current wind speed in m/s (hover to see current wind gust speed)